KMLI/MLI METAR and TAF weather

Enter ICAO airport designator
Station Type Date Time Source
KMLI METAR 2018/12/13 05:52 UTC NOAA

KMLI 130552Z AUTO 08006KT 8SM CLR M03/M04 A2994 RMK AO2 SLP144 I1000 I6000 T10331044 10022 21039 400611039 50005


Station Type Date Time Source
KMLI Decoded METAR 2018/12/13 05:52 UTC NOAA

MOLINE QUAD-CITY AIRPORT, IL, United States (KMLI) 41-27N 90-31W 184M
Dec 13, 2018 - 12:52 AM EST / 2018.12.13 0552 UTC
Wind: from the E (080 degrees) at 7 MPH (6 KT):0
Visibility: 8 mile(s):0
Sky conditions: clear
Temperature: 26.1 F (-3.3 C)
Windchill: 17 F (-8 C):1
Dew Point: 24.1 F (-4.4 C)
Relative Humidity: 92%
Pressure (altimeter): 29.94 in. Hg (1013 hPa)
Pressure tendency: 0.01 inches (0.5 hPa) higher than three hours ago
ob: KMLI 130552Z AUTO 08006KT 8SM CLR M03/M04 A2994 RMK AO2 SLP144 I1000 I6000 T10331044 10022 21039 400611039 50005
cycle: 6

Station Type Date Time Source
KMLI TAF 2018/12/13 06:22 UTC NOAA

TAF KMLI 130520Z 1306/1406 09003KT P6SM BKN200
FM130700 10004KT 4SM BR SCT200
FM130900 11006KT 3SM BR BKN035
FM131300 10005KT 5SM BR OVC015 PROB30 1321/1401 4SM -DZ BR OVC009
FM140100 01005KT 3SM -RA BR OVC008


Example: see airport list